sensor_id;sensor_type;location;lat;lon;timestamp;temperature;humidity
12470;DHT22;36499;46.484;13.832;2023-01-25T00:00:03;1.10;99.90
12470;DHT22;36499;46.484;13.832;2023-01-25T00:02:31;1.00;99.90
12470;DHT22;36499;46.484;13.832;2023-01-25T00:04:58;1.00;99.90
12470;DHT22;36499;46.484;13.832;2023-01-25T00:07:25;1.00;99.90
12470;DHT22;36499;46.484;13.832;2023-01-25T00:09:52;1.00;99.90
12470;DHT22;36499;46.484;13.832;2023-01-25T00:12:19;1.00;99.90
12470;DHT22;36499;46.484;13.832;2023-01-25T00:14:48;1.00;99.90
12470;DHT22;36499;46.484;13.832;2023-01-25T00:17:15;1.00;99.90
12470;DHT22;36499;46.484;13.832;2023-01-25T00:19:42;0.90;99.90
12470;DHT22;36499;46.484;13.832;2023-01-25T00:22:09;0.80;99.90
12470;DHT22;36499;46.484;13.832;2023-01-25T00:24:36;0.80;99.90
12470;DHT22;36499;46.484;13.832;2023-01-25T00:27:03;0.80;99.90
12470;DHT22;36499;46.484;13.832;2023-01-25T00:29:30;0.80;99.90
12470;DHT22;36499;46.484;13.832;2023-01-25T00:32:28;0.70;99.90
12470;DHT22;36499;46.484;13.832;2023-01-25T00:35:02;0.80;99.90
12470;DHT22;36499;46.484;13.832;2023-01-25T00:37:35;0.80;99.90
12470;DHT22;36499;46.484;13.832;2023-01-25T00:40:05;0.80;99.90
12470;DHT22;36499;46.484;13.832;2023-01-25T00:42:33;0.90;99.90
12470;DHT22;36499;46.484;13.832;2023-01-25T00:45:00;0.90;99.90
12470;DHT22;36499;46.484;13.832;2023-01-25T00:47:28;0.80;99.90
12470;DHT22;36499;46.484;13.832;2023-01-25T00:49:55;0.70;99.90
12470;DHT22;36499;46.484;13.832;2023-01-25T00:52:22;0.70;99.90
12470;DHT22;36499;46.484;13.832;2023-01-25T00:54:49;0.70;99.90
12470;DHT22;36499;46.484;13.832;2023-01-25T00:57:16;0.70;99.90
12470;DHT22;36499;46.484;13.832;2023-01-25T00:59:43;0.60;99.90
12470;DHT22;36499;46.484;13.832;2023-01-25T01:02:12;0.60;99.90
12470;DHT22;36499;46.484;13.832;2023-01-25T01:04:40;0.50;99.90
12470;DHT22;36499;46.484;13.832;2023-01-25T01:07:07;0.60;99.90
12470;DHT22;36499;46.484;13.832;2023-01-25T01:09:36;0.50;99.90
12470;DHT22;36499;46.484;13.832;2023-01-25T01:12:04;0.50;99.90
12470;DHT22;36499;46.484;13.832;2023-01-25T01:14:31;0.50;99.90
12470;DHT22;36499;46.484;13.832;2023-01-25T01:16:58;0.50;99.90
12470;DHT22;36499;46.484;13.832;2023-01-25T01:19:25;0.50;99.90
12470;DHT22;36499;46.484;13.832;2023-01-25T01:21:53;0.50;99.90
12470;DHT22;36499;46.484;13.832;2023-01-25T01:24:20;0.60;99.90
12470;DHT22;36499;46.484;13.832;2023-01-25T01:26:47;0.60;99.90
12470;DHT22;36499;46.484;13.832;2023-01-25T01:29:14;0.70;99.90
12470;DHT22;36499;46.484;13.832;2023-01-25T01:31:41;0.60;99.90
12470;DHT22;36499;46.484;13.832;2023-01-25T01:34:11;0.70;99.90
12470;DHT22;36499;46.484;13.832;2023-01-25T01:36:39;0.60;99.90
12470;DHT22;36499;46.484;13.832;2023-01-25T01:39:08;0.60;99.90
12470;DHT22;36499;46.484;13.832;2023-01-25T01:41:36;0.60;99.90
12470;DHT22;36499;46.484;13.832;2023-01-25T01:44:04;0.50;99.90
12470;DHT22;36499;46.484;13.832;2023-01-25T01:46:33;0.50;99.90
12470;DHT22;36499;46.484;13.832;2023-01-25T01:49:04;0.50;99.90
12470;DHT22;36499;46.484;13.832;2023-01-25T01:51:42;0.50;99.90
12470;DHT22;36499;46.484;13.832;2023-01-25T01:54:17;0.50;99.90
12470;DHT22;36499;46.484;13.832;2023-01-25T01:56:53;0.40;99.90
12470;DHT22;36499;46.484;13.832;2023-01-25T01:59:26;0.40;99.90
12470;DHT22;36499;46.484;13.832;2023-01-25T02:01:56;0.50;99.90
12470;DHT22;36499;46.484;13.832;2023-01-25T02:04:24;0.50;99.90
12470;DHT22;36499;46.484;13.832;2023-01-25T02:06:57;0.50;99.90
12470;DHT22;36499;46.484;13.832;2023-01-25T02:09:31;0.50;99.90
12470;DHT22;36499;46.484;13.832;2023-01-25T02:12:00;0.50;99.90
12470;DHT22;36499;46.484;13.832;2023-01-25T02:14:28;0.50;99.90
12470;DHT22;36499;46.484;13.832;2023-01-25T02:16:56;0.50;99.90
12470;DHT22;36499;46.484;13.832;2023-01-25T02:19:34;0.50;99.90
12470;DHT22;36499;46.484;13.832;2023-01-25T02:22:11;0.50;99.90
12470;DHT22;36499;46.484;13.832;2023-01-25T02:24:48;0.40;99.90
12470;DHT22;36499;46.484;13.832;2023-01-25T02:27:26;0.40;99.90
12470;DHT22;36499;46.484;13.832;2023-01-25T02:29:53;0.40;99.90
12470;DHT22;36499;46.484;13.832;2023-01-25T02:32:20;0.40;99.90
12470;DHT22;36499;46.484;13.832;2023-01-25T02:34:47;0.40;99.90
12470;DHT22;36499;46.484;13.832;2023-01-25T02:37:15;0.40;99.90
12470;DHT22;36499;46.484;13.832;2023-01-25T02:39:42;0.40;99.90
12470;DHT22;36499;46.484;13.832;2023-01-25T02:42:11;0.40;99.90
12470;DHT22;36499;46.484;13.832;2023-01-25T02:44:38;0.30;99.90
12470;DHT22;36499;46.484;13.832;2023-01-25T02:47:06;0.30;99.90
12470;DHT22;36499;46.484;13.832;2023-01-25T02:49:34;0.20;99.90
12470;DHT22;36499;46.484;13.832;2023-01-25T02:52:03;0.20;99.90
12470;DHT22;36499;46.484;13.832;2023-01-25T02:54:31;0.20;99.90
12470;DHT22;36499;46.484;13.832;2023-01-25T02:56:58;0.20;99.90
12470;DHT22;36499;46.484;13.832;2023-01-25T02:59:27;0.30;99.90
12470;DHT22;36499;46.484;13.832;2023-01-25T03:01:54;0.30;99.90
12470;DHT22;36499;46.484;13.832;2023-01-25T03:04:21;0.30;99.90
12470;DHT22;36499;46.484;13.832;2023-01-25T03:06:48;0.20;99.90
12470;DHT22;36499;46.484;13.832;2023-01-25T03:09:16;0.20;99.90
12470;DHT22;36499;46.484;13.832;2023-01-25T03:11:43;0.20;99.90
12470;DHT22;36499;46.484;13.832;2023-01-25T03:14:10;0.20;99.90
12470;DHT22;36499;46.484;13.832;2023-01-25T03:16:38;0.20;99.90
12470;DHT22;36499;46.484;13.832;2023-01-25T03:19:05;0.20;99.90
12470;DHT22;36499;46.484;13.832;2023-01-25T03:21:32;0.10;99.90
12470;DHT22;36499;46.484;13.832;2023-01-25T03:24:00;0.10;99.90
12470;DHT22;36499;46.484;13.832;2023-01-25T03:26:28;0.10;99.90
12470;DHT22;36499;46.484;13.832;2023-01-25T03:28:56;0.10;99.90
12470;DHT22;36499;46.484;13.832;2023-01-25T03:31:23;0.00;99.90
12470;DHT22;36499;46.484;13.832;2023-01-25T03:33:51;0.00;99.90
12470;DHT22;36499;46.484;13.832;2023-01-25T03:36:18;-0.10;99.90
12470;DHT22;36499;46.484;13.832;2023-01-25T03:38:45;-0.10;99.90
12470;DHT22;36499;46.484;13.832;2023-01-25T03:41:12;0.00;99.90
12470;DHT22;36499;46.484;13.832;2023-01-25T03:43:39;-0.10;99.90
12470;DHT22;36499;46.484;13.832;2023-01-25T03:46:07;-0.10;99.90
12470;DHT22;36499;46.484;13.832;2023-01-25T03:48:34;0.00;99.90
12470;DHT22;36499;46.484;13.832;2023-01-25T03:51:02;0.00;99.90
12470;DHT22;36499;46.484;13.832;2023-01-25T03:53:30;0.20;99.90
12470;DHT22;36499;46.484;13.832;2023-01-25T03:55:59;0.30;99.90
12470;DHT22;36499;46.484;13.832;2023-01-25T03:58:27;0.30;99.90
12470;DHT22;36499;46.484;13.832;2023-01-25T04:00:56;0.20;99.90
12470;DHT22;36499;46.484;13.832;2023-01-25T04:03:24;0.10;99.90
12470;DHT22;36499;46.484;13.832;2023-01-25T04:05:53;0.10;99.90
12470;DHT22;36499;46.484;13.832;2023-01-25T04:08:24;0.10;99.90
12470;DHT22;36499;46.484;13.832;2023-01-25T04:10:52;0.00;99.90
12470;DHT22;36499;46.484;13.832;2023-01-25T04:13:21;0.00;99.90
12470;DHT22;36499;46.484;13.832;2023-01-25T04:15:49;0.00;99.90
12470;DHT22;36499;46.484;13.832;2023-01-25T04:18:17;0.00;99.90
12470;DHT22;36499;46.484;13.832;2023-01-25T04:20:44;0.00;99.90
12470;DHT22;36499;46.484;13.832;2023-01-25T04:23:11;-0.10;99.90
12470;DHT22;36499;46.484;13.832;2023-01-25T04:25:40;-0.10;99.90
12470;DHT22;36499;46.484;13.832;2023-01-25T04:28:08;-0.10;99.90
12470;DHT22;36499;46.484;13.832;2023-01-25T04:30:35;-0.10;99.90
12470;DHT22;36499;46.484;13.832;2023-01-25T04:33:03;-0.10;99.90
12470;DHT22;36499;46.484;13.832;2023-01-25T04:35:31;-0.10;99.90
12470;DHT22;36499;46.484;13.832;2023-01-25T04:37:58;-0.20;99.90
12470;DHT22;36499;46.484;13.832;2023-01-25T04:40:26;-0.20;99.90
12470;DHT22;36499;46.484;13.832;2023-01-25T04:42:55;-0.30;99.90
12470;DHT22;36499;46.484;13.832;2023-01-25T04:45:23;-0.30;99.90
12470;DHT22;36499;46.484;13.832;2023-01-25T04:47:56;-0.40;99.90
12470;DHT22;36499;46.484;13.832;2023-01-25T04:50:25;-0.40;99.90
12470;DHT22;36499;46.484;13.832;2023-01-25T04:52:52;-0.40;99.90
12470;DHT22;36499;46.484;13.832;2023-01-25T04:55:20;-0.40;99.90
12470;DHT22;36499;46.484;13.832;2023-01-25T04:57:48;-0.50;99.90
12470;DHT22;36499;46.484;13.832;2023-01-25T05:00:17;-0.50;99.90
12470;DHT22;36499;46.484;13.832;2023-01-25T05:02:45;-0.60;99.90
12470;DHT22;36499;46.484;13.832;2023-01-25T05:05:14;-0.60;99.90
12470;DHT22;36499;46.484;13.832;2023-01-25T05:07:41;-0.70;99.90
12470;DHT22;36499;46.484;13.832;2023-01-25T05:10:09;-0.70;99.90
12470;DHT22;36499;46.484;13.832;2023-01-25T05:12:37;-0.70;99.90
12470;DHT22;36499;46.484;13.832;2023-01-25T05:15:05;-0.80;99.90
12470;DHT22;36499;46.484;13.832;2023-01-25T05:17:34;-0.80;99.90
12470;DHT22;36499;46.484;13.832;2023-01-25T05:20:01;-0.90;99.90
12470;DHT22;36499;46.484;13.832;2023-01-25T05:22:29;-0.90;99.90
12470;DHT22;36499;46.484;13.832;2023-01-25T05:24:56;-0.90;99.90
12470;DHT22;36499;46.484;13.832;2023-01-25T05:27:24;-1.00;99.90
12470;DHT22;36499;46.484;13.832;2023-01-25T05:29:50;-1.00;99.90
12470;DHT22;36499;46.484;13.832;2023-01-25T05:32:19;-1.20;99.90
12470;DHT22;36499;46.484;13.832;2023-01-25T05:34:49;-1.20;99.90
12470;DHT22;36499;46.484;13.832;2023-01-25T05:37:18;-1.20;99.90
12470;DHT22;36499;46.484;13.832;2023-01-25T05:39:46;-1.10;99.90
12470;DHT22;36499;46.484;13.832;2023-01-25T05:42:15;-1.30;99.90
12470;DHT22;36499;46.484;13.832;2023-01-25T05:44:43;-1.20;99.90
12470;DHT22;36499;46.484;13.832;2023-01-25T05:47:11;-1.30;99.90
12470;DHT22;36499;46.484;13.832;2023-01-25T05:49:40;-1.30;99.90
12470;DHT22;36499;46.484;13.832;2023-01-25T05:52:11;-1.30;99.90
12470;DHT22;36499;46.484;13.832;2023-01-25T05:54:39;-1.30;99.90
12470;DHT22;36499;46.484;13.832;2023-01-25T05:57:06;-1.20;99.90
12470;DHT22;36499;46.484;13.832;2023-01-25T05:59:33;-1.20;99.90
12470;DHT22;36499;46.484;13.832;2023-01-25T06:02:00;-1.20;99.90
12470;DHT22;36499;46.484;13.832;2023-01-25T06:04:27;-1.20;99.90
12470;DHT22;36499;46.484;13.832;2023-01-25T06:06:54;-1.30;99.90
12470;DHT22;36499;46.484;13.832;2023-01-25T06:09:23;-1.30;99.90
12470;DHT22;36499;46.484;13.832;2023-01-25T06:11:50;-1.30;99.90
12470;DHT22;36499;46.484;13.832;2023-01-25T06:14:18;-1.30;99.90
12470;DHT22;36499;46.484;13.832;2023-01-25T06:16:45;-1.40;99.90
12470;DHT22;36499;46.484;13.832;2023-01-25T06:19:12;-1.50;99.90
12470;DHT22;36499;46.484;13.832;2023-01-25T06:21:40;-1.50;99.90
12470;DHT22;36499;46.484;13.832;2023-01-25T06:24:07;-1.50;99.90
12470;DHT22;36499;46.484;13.832;2023-01-25T06:26:35;-1.50;99.90
12470;DHT22;36499;46.484;13.832;2023-01-25T06:29:04;-1.50;99.90
12470;DHT22;36499;46.484;13.832;2023-01-25T06:31:31;-1.40;99.90
12470;DHT22;36499;46.484;13.832;2023-01-25T06:33:59;-1.40;99.90
12470;DHT22;36499;46.484;13.832;2023-01-25T06:36:29;-1.40;99.90
12470;DHT22;36499;46.484;13.832;2023-01-25T06:38:56;-1.40;99.90
12470;DHT22;36499;46.484;13.832;2023-01-25T06:41:23;-1.50;99.90
12470;DHT22;36499;46.484;13.832;2023-01-25T06:43:52;-1.50;99.90
12470;DHT22;36499;46.484;13.832;2023-01-25T06:46:20;-1.60;99.90
12470;DHT22;36499;46.484;13.832;2023-01-25T06:48:48;-1.60;99.90
12470;DHT22;36499;46.484;13.832;2023-01-25T06:51:15;-1.50;99.90
12470;DHT22;36499;46.484;13.832;2023-01-25T06:53:44;-1.50;99.90
12470;DHT22;36499;46.484;13.832;2023-01-25T06:56:13;-1.50;99.90
12470;DHT22;36499;46.484;13.832;2023-01-25T06:58:42;-1.40;99.90
12470;DHT22;36499;46.484;13.832;2023-01-25T07:01:14;-1.40;99.90
12470;DHT22;36499;46.484;13.832;2023-01-25T07:03:47;-1.40;99.90
12470;DHT22;36499;46.484;13.832;2023-01-25T07:06:14;-1.50;99.90
12470;DHT22;36499;46.484;13.832;2023-01-25T07:08:42;-1.50;99.90
12470;DHT22;36499;46.484;13.832;2023-01-25T07:11:10;-1.50;99.90
12470;DHT22;36499;46.484;13.832;2023-01-25T07:13:39;-1.40;99.90
12470;DHT22;36499;46.484;13.832;2023-01-25T07:16:10;-1.40;99.90
12470;DHT22;36499;46.484;13.832;2023-01-25T07:18:40;-1.40;99.90
12470;DHT22;36499;46.484;13.832;2023-01-25T07:21:09;-1.50;99.90
12470;DHT22;36499;46.484;13.832;2023-01-25T07:23:38;-1.40;99.90
12470;DHT22;36499;46.484;13.832;2023-01-25T07:26:13;-1.40;99.90
12470;DHT22;36499;46.484;13.832;2023-01-25T07:28:43;-1.30;99.90
12470;DHT22;36499;46.484;13.832;2023-01-25T07:31:12;-1.10;99.90
12470;DHT22;36499;46.484;13.832;2023-01-25T07:33:39;-1.00;99.90
12470;DHT22;36499;46.484;13.832;2023-01-25T07:36:08;-1.00;99.90
12470;DHT22;36499;46.484;13.832;2023-01-25T07:38:36;-1.00;99.90
12470;DHT22;36499;46.484;13.832;2023-01-25T07:41:04;-1.00;99.90
12470;DHT22;36499;46.484;13.832;2023-01-25T07:43:31;-1.00;99.90
12470;DHT22;36499;46.484;13.832;2023-01-25T07:46:02;-1.00;99.90
12470;DHT22;36499;46.484;13.832;2023-01-25T07:48:32;-1.00;99.90
12470;DHT22;36499;46.484;13.832;2023-01-25T07:51:00;-1.00;99.90
12470;DHT22;36499;46.484;13.832;2023-01-25T07:53:38;-1.00;99.90
12470;DHT22;36499;46.484;13.832;2023-01-25T07:56:06;-1.00;99.90
12470;DHT22;36499;46.484;13.832;2023-01-25T07:58:34;-1.00;99.90
12470;DHT22;36499;46.484;13.832;2023-01-25T08:01:06;-0.80;99.90
12470;DHT22;36499;46.484;13.832;2023-01-25T08:03:35;-0.80;99.90
12470;DHT22;36499;46.484;13.832;2023-01-25T08:06:02;-0.70;99.90
12470;DHT22;36499;46.484;13.832;2023-01-25T08:08:31;-0.70;99.90
12470;DHT22;36499;46.484;13.832;2023-01-25T08:10:59;-0.70;99.90
12470;DHT22;36499;46.484;13.832;2023-01-25T08:13:27;-0.70;99.90
12470;DHT22;36499;46.484;13.832;2023-01-25T08:15:54;-0.70;99.90
12470;DHT22;36499;46.484;13.832;2023-01-25T08:18:21;-0.70;99.90
12470;DHT22;36499;46.484;13.832;2023-01-25T08:20:51;-0.70;99.90
12470;DHT22;36499;46.484;13.832;2023-01-25T08:23:18;-0.70;99.90
12470;DHT22;36499;46.484;13.832;2023-01-25T08:25:45;-0.70;99.90
12470;DHT22;36499;46.484;13.832;2023-01-25T08:28:12;-0.70;99.90
12470;DHT22;36499;46.484;13.832;2023-01-25T08:30:39;-0.70;99.90
12470;DHT22;36499;46.484;13.832;2023-01-25T08:33:06;-0.60;99.90
12470;DHT22;36499;46.484;13.832;2023-01-25T08:35:34;-0.60;99.90
12470;DHT22;36499;46.484;13.832;2023-01-25T08:38:03;-0.50;99.90
12470;DHT22;36499;46.484;13.832;2023-01-25T08:40:30;-0.50;99.90
12470;DHT22;36499;46.484;13.832;2023-01-25T08:42:57;-0.50;99.90
12470;DHT22;36499;46.484;13.832;2023-01-25T08:45:24;-0.60;99.90
12470;DHT22;36499;46.484;13.832;2023-01-25T08:47:51;-0.50;99.90
12470;DHT22;36499;46.484;13.832;2023-01-25T08:50:18;-0.60;99.90
12470;DHT22;36499;46.484;13.832;2023-01-25T08:52:45;-0.60;99.90
12470;DHT22;36499;46.484;13.832;2023-01-25T08:55:13;-0.50;99.90
12470;DHT22;36499;46.484;13.832;2023-01-25T08:57:41;-0.40;99.90
12470;DHT22;36499;46.484;13.832;2023-01-25T09:00:09;-0.40;99.90
12470;DHT22;36499;46.484;13.832;2023-01-25T09:02:37;-0.30;99.90
12470;DHT22;36499;46.484;13.832;2023-01-25T09:05:05;-0.30;99.90
12470;DHT22;36499;46.484;13.832;2023-01-25T09:07:32;-0.20;99.90
12470;DHT22;36499;46.484;13.832;2023-01-25T09:10:03;-0.20;99.90
12470;DHT22;36499;46.484;13.832;2023-01-25T09:12:34;-0.10;99.90
12470;DHT22;36499;46.484;13.832;2023-01-25T09:15:02;-0.10;99.90
12470;DHT22;36499;46.484;13.832;2023-01-25T09:17:29;-0.10;99.90
12470;DHT22;36499;46.484;13.832;2023-01-25T09:19:56;0.00;99.90
12470;DHT22;36499;46.484;13.832;2023-01-25T09:22:24;0.00;99.90
12470;DHT22;36499;46.484;13.832;2023-01-25T09:24:51;0.10;99.90
12470;DHT22;36499;46.484;13.832;2023-01-25T09:27:18;0.10;99.90
12470;DHT22;36499;46.484;13.832;2023-01-25T09:29:47;0.20;99.90
12470;DHT22;36499;46.484;13.832;2023-01-25T09:32:14;0.20;99.90
12470;DHT22;36499;46.484;13.832;2023-01-25T09:34:41;0.30;99.90
12470;DHT22;36499;46.484;13.832;2023-01-25T09:37:08;0.70;99.90
12470;DHT22;36499;46.484;13.832;2023-01-25T09:39:35;1.10;99.90
12470;DHT22;36499;46.484;13.832;2023-01-25T09:42:25;1.30;99.90
12470;DHT22;36499;46.484;13.832;2023-01-25T09:45:24;1.70;99.90
12470;DHT22;36499;46.484;13.832;2023-01-25T09:48:02;2.20;99.90
12470;DHT22;36499;46.484;13.832;2023-01-25T09:50:42;2.40;99.90
12470;DHT22;36499;46.484;13.832;2023-01-25T09:53:31;2.60;99.90
12470;DHT22;36499;46.484;13.832;2023-01-25T09:56:03;2.80;99.90
12470;DHT22;36499;46.484;13.832;2023-01-25T09:58:38;3.00;99.90
12470;DHT22;36499;46.484;13.832;2023-01-25T10:01:19;3.00;99.90
12470;DHT22;36499;46.484;13.832;2023-01-25T10:03:54;3.20;99.90
12470;DHT22;36499;46.484;13.832;2023-01-25T10:06:34;3.30;99.90
12470;DHT22;36499;46.484;13.832;2023-01-25T10:09:13;3.50;99.90
12470;DHT22;36499;46.484;13.832;2023-01-25T10:11:45;3.60;99.90
12470;DHT22;36499;46.484;13.832;2023-01-25T10:14:14;3.70;99.90
12470;DHT22;36499;46.484;13.832;2023-01-25T10:16:53;3.90;99.90
12470;DHT22;36499;46.484;13.832;2023-01-25T10:19:41;3.80;99.90
12470;DHT22;36499;46.484;13.832;2023-01-25T10:22:23;3.80;99.90
12470;DHT22;36499;46.484;13.832;2023-01-25T10:25:05;3.80;99.90
12470;DHT22;36499;46.484;13.832;2023-01-25T10:27:58;3.90;99.90
12470;DHT22;36499;46.484;13.832;2023-01-25T10:30:40;4.00;99.90
12470;DHT22;36499;46.484;13.832;2023-01-25T10:33:17;4.00;99.90
12470;DHT22;36499;46.484;13.832;2023-01-25T10:35:47;4.10;99.90
12470;DHT22;36499;46.484;13.832;2023-01-25T10:38:20;4.10;99.90
12470;DHT22;36499;46.484;13.832;2023-01-25T10:40:57;4.20;99.90
12470;DHT22;36499;46.484;13.832;2023-01-25T10:43:28;4.30;99.90
12470;DHT22;36499;46.484;13.832;2023-01-25T10:45:55;4.40;99.90
12470;DHT22;36499;46.484;13.832;2023-01-25T10:48:26;4.40;99.90
12470;DHT22;36499;46.484;13.832;2023-01-25T10:50:57;4.40;99.90
12470;DHT22;36499;46.484;13.832;2023-01-25T10:53:28;4.40;99.90
12470;DHT22;36499;46.484;13.832;2023-01-25T10:56:18;4.50;99.90
12470;DHT22;36499;46.484;13.832;2023-01-25T10:58:50;4.50;99.90
12470;DHT22;36499;46.484;13.832;2023-01-25T11:01:27;4.60;99.90
12470;DHT22;36499;46.484;13.832;2023-01-25T11:03:58;4.70;99.90
12470;DHT22;36499;46.484;13.832;2023-01-25T11:06:33;4.80;99.90
12470;DHT22;36499;46.484;13.832;2023-01-25T11:09:05;4.80;99.90
12470;DHT22;36499;46.484;13.832;2023-01-25T11:11:59;4.90;99.90
12470;DHT22;36499;46.484;13.832;2023-01-25T11:14:28;4.80;99.90
12470;DHT22;36499;46.484;13.832;2023-01-25T11:16:58;4.60;99.90
12470;DHT22;36499;46.484;13.832;2023-01-25T11:19:33;4.50;99.90
12470;DHT22;36499;46.484;13.832;2023-01-25T11:22:03;4.50;99.90
12470;DHT22;36499;46.484;13.832;2023-01-25T11:24:33;4.40;99.90
12470;DHT22;36499;46.484;13.832;2023-01-25T11:27:12;4.30;99.90
12470;DHT22;36499;46.484;13.832;2023-01-25T11:29:43;4.30;99.90
12470;DHT22;36499;46.484;13.832;2023-01-25T11:32:17;4.30;99.90
12470;DHT22;36499;46.484;13.832;2023-01-25T11:34:49;4.30;99.90
12470;DHT22;36499;46.484;13.832;2023-01-25T11:37:27;4.30;99.90
12470;DHT22;36499;46.484;13.832;2023-01-25T11:40:14;4.40;99.90
12470;DHT22;36499;46.484;13.832;2023-01-25T11:42:54;4.40;99.90
12470;DHT22;36499;46.484;13.832;2023-01-25T11:45:52;4.50;99.90
12470;DHT22;36499;46.484;13.832;2023-01-25T11:51:42;4.50;99.90
12470;DHT22;36499;46.484;13.832;2023-01-25T11:54:48;4.40;99.90
12470;DHT22;36499;46.484;13.832;2023-01-25T11:57:56;4.40;99.90
12470;DHT22;36499;46.484;13.832;2023-01-25T12:00:43;4.40;99.90
12470;DHT22;36499;46.484;13.832;2023-01-25T12:03:39;4.40;99.90
12470;DHT22;36499;46.484;13.832;2023-01-25T12:06:32;4.30;99.90
12470;DHT22;36499;46.484;13.832;2023-01-25T12:09:23;4.30;99.90
12470;DHT22;36499;46.484;13.832;2023-01-25T12:12:18;4.30;99.90
12470;DHT22;36499;46.484;13.832;2023-01-25T12:15:07;4.30;99.90
12470;DHT22;36499;46.484;13.832;2023-01-25T12:18:06;4.30;99.90
12470;DHT22;36499;46.484;13.832;2023-01-25T12:21:03;4.20;99.90
12470;DHT22;36499;46.484;13.832;2023-01-25T12:23:45;4.20;99.90
12470;DHT22;36499;46.484;13.832;2023-01-25T12:26:25;4.20;99.90
12470;DHT22;36499;46.484;13.832;2023-01-25T12:29:01;4.30;99.90
12470;DHT22;36499;46.484;13.832;2023-01-25T12:31:41;4.20;99.90
12470;DHT22;36499;46.484;13.832;2023-01-25T12:34:17;4.20;99.90
12470;DHT22;36499;46.484;13.832;2023-01-25T12:36:48;4.30;99.90
12470;DHT22;36499;46.484;13.832;2023-01-25T12:39:19;4.30;99.90
12470;DHT22;36499;46.484;13.832;2023-01-25T12:41:53;4.30;99.90
12470;DHT22;36499;46.484;13.832;2023-01-25T12:44:26;4.30;99.90
12470;DHT22;36499;46.484;13.832;2023-01-25T12:47:03;4.30;99.90
12470;DHT22;36499;46.484;13.832;2023-01-25T12:49:41;4.30;99.90
12470;DHT22;36499;46.484;13.832;2023-01-25T12:52:18;4.40;99.90
12470;DHT22;36499;46.484;13.832;2023-01-25T12:54:49;4.30;99.90
12470;DHT22;36499;46.484;13.832;2023-01-25T12:57:22;4.30;99.90
12470;DHT22;36499;46.484;13.832;2023-01-25T12:59:59;4.20;99.90
12470;DHT22;36499;46.484;13.832;2023-01-25T13:02:49;3.80;99.90
12470;DHT22;36499;46.484;13.832;2023-01-25T13:05:30;3.60;99.90
12470;DHT22;36499;46.484;13.832;2023-01-25T13:08:10;3.30;99.90
12470;DHT22;36499;46.484;13.832;2023-01-25T13:10:51;3.10;99.90
12470;DHT22;36499;46.484;13.832;2023-01-25T13:13:21;2.90;99.90
12470;DHT22;36499;46.484;13.832;2023-01-25T13:15:51;2.80;99.90
12470;DHT22;36499;46.484;13.832;2023-01-25T13:18:48;2.60;99.90
12470;DHT22;36499;46.484;13.832;2023-01-25T13:21:37;2.50;99.90
12470;DHT22;36499;46.484;13.832;2023-01-25T13:24:22;2.40;99.90
12470;DHT22;36499;46.484;13.832;2023-01-25T13:27:00;2.30;99.90
12470;DHT22;36499;46.484;13.832;2023-01-25T13:29:54;2.30;99.90
12470;DHT22;36499;46.484;13.832;2023-01-25T13:32:59;2.30;99.90
12470;DHT22;36499;46.484;13.832;2023-01-25T13:35:40;2.20;99.90
12470;DHT22;36499;46.484;13.832;2023-01-25T13:38:28;2.30;99.90
12470;DHT22;36499;46.484;13.832;2023-01-25T13:41:12;2.30;99.90
12470;DHT22;36499;46.484;13.832;2023-01-25T13:43:45;2.30;99.90
12470;DHT22;36499;46.484;13.832;2023-01-25T13:46:16;2.20;99.90
12470;DHT22;36499;46.484;13.832;2023-01-25T13:48:58;2.20;99.90
12470;DHT22;36499;46.484;13.832;2023-01-25T13:51:33;2.10;99.90
12470;DHT22;36499;46.484;13.832;2023-01-25T13:54:03;2.10;99.90
12470;DHT22;36499;46.484;13.832;2023-01-25T13:56:32;1.90;99.90
12470;DHT22;36499;46.484;13.832;2023-01-25T13:59:02;1.70;99.90
12470;DHT22;36499;46.484;13.832;2023-01-25T14:01:31;1.70;99.90
12470;DHT22;36499;46.484;13.832;2023-01-25T14:04:03;1.70;99.90
12470;DHT22;36499;46.484;13.832;2023-01-25T14:06:32;1.60;99.90
12470;DHT22;36499;46.484;13.832;2023-01-25T14:09:04;1.60;99.90
12470;DHT22;36499;46.484;13.832;2023-01-25T14:11:43;1.50;99.90
12470;DHT22;36499;46.484;13.832;2023-01-25T14:14:24;1.50;99.90
12470;DHT22;36499;46.484;13.832;2023-01-25T14:17:04;1.40;99.90
12470;DHT22;36499;46.484;13.832;2023-01-25T14:19:41;1.30;99.90
12470;DHT22;36499;46.484;13.832;2023-01-25T14:22:22;1.20;99.90
12470;DHT22;36499;46.484;13.832;2023-01-25T14:25:06;1.20;99.90
12470;DHT22;36499;46.484;13.832;2023-01-25T14:27:41;1.20;99.90
12470;DHT22;36499;46.484;13.832;2023-01-25T14:30:18;1.10;99.90
12470;DHT22;36499;46.484;13.832;2023-01-25T14:32:48;1.00;99.90
12470;DHT22;36499;46.484;13.832;2023-01-25T14:35:34;1.00;99.90
12470;DHT22;36499;46.484;13.832;2023-01-25T14:38:22;1.00;99.90
12470;DHT22;36499;46.484;13.832;2023-01-25T14:40:56;0.90;99.90
12470;DHT22;36499;46.484;13.832;2023-01-25T14:43:27;0.80;99.90
12470;DHT22;36499;46.484;13.832;2023-01-25T14:45:55;0.70;99.90
12470;DHT22;36499;46.484;13.832;2023-01-25T14:48:36;0.60;99.90
12470;DHT22;36499;46.484;13.832;2023-01-25T14:51:15;0.50;99.90
12470;DHT22;36499;46.484;13.832;2023-01-25T14:53:48;0.50;99.90
12470;DHT22;36499;46.484;13.832;2023-01-25T14:56:39;0.50;99.90
12470;DHT22;36499;46.484;13.832;2023-01-25T14:59:27;0.50;99.90
12470;DHT22;36499;46.484;13.832;2023-01-25T15:02:01;0.50;99.90
12470;DHT22;36499;46.484;13.832;2023-01-25T15:04:30;0.40;99.90
12470;DHT22;36499;46.484;13.832;2023-01-25T15:06:57;0.30;99.90
12470;DHT22;36499;46.484;13.832;2023-01-25T15:09:33;0.20;99.90
12470;DHT22;36499;46.484;13.832;2023-01-25T15:12:27;0.20;99.90
12470;DHT22;36499;46.484;13.832;2023-01-25T15:14:56;0.10;99.90
12470;DHT22;36499;46.484;13.832;2023-01-25T15:17:46;0.10;99.90
12470;DHT22;36499;46.484;13.832;2023-01-25T15:20:37;0.10;99.90
12470;DHT22;36499;46.484;13.832;2023-01-25T15:23:21;0.10;99.90
12470;DHT22;36499;46.484;13.832;2023-01-25T15:25:53;0.00;99.90
12470;DHT22;36499;46.484;13.832;2023-01-25T15:28:23;0.00;99.90
12470;DHT22;36499;46.484;13.832;2023-01-25T15:30:51;-0.10;99.90
12470;DHT22;36499;46.484;13.832;2023-01-25T15:33:22;-0.10;99.90
12470;DHT22;36499;46.484;13.832;2023-01-25T15:35:51;-0.20;99.90
12470;DHT22;36499;46.484;13.832;2023-01-25T15:38:19;-0.30;99.90
12470;DHT22;36499;46.484;13.832;2023-01-25T15:40:47;-0.30;99.90
12470;DHT22;36499;46.484;13.832;2023-01-25T15:43:16;-0.40;99.90
12470;DHT22;36499;46.484;13.832;2023-01-25T15:45:46;-0.50;99.90
12470;DHT22;36499;46.484;13.832;2023-01-25T15:48:18;-0.50;99.90
12470;DHT22;36499;46.484;13.832;2023-01-25T15:50:53;-0.60;99.90
12470;DHT22;36499;46.484;13.832;2023-01-25T15:53:22;-0.60;99.90
12470;DHT22;36499;46.484;13.832;2023-01-25T15:55:52;-0.60;99.90
12470;DHT22;36499;46.484;13.832;2023-01-25T15:58:26;-0.70;99.90